<?xml version="1.0" encoding="UTF-8" standalone="no" ?>
<gpx xmlns="http://www.topografix.com/GPX/1/1" xmlns:xsi="http://www.w3.org/2001/XMLSchema-instance" xsi:schemaLocation="http://www.topografix.com/GPX/1/1 http://www.topografix.com/GPX/1/1/gpx.xsd" version="1.1" creator="VisuGPX - https://www.visugpx.com">
  <metadata>
    <name>ROP_LacanauDeMios_26km</name>
  </metadata>
  <trk>
    <name><![CDATA[ROP_LacanauDeMios_26km]]></name>
    <extensions>
      <line xmlns="http://www.topografix.com/GPX/gpx_style/0/2">
        <color>0000FF</color>
        <width>4</width>
      </line>
    </extensions>
    <trkseg>
      <trkpt lat="44.65122" lon="-0.8955">
        <ele>30.3</ele>
        <time>2021-06-01T22:00:00.000Z</time>
      </trkpt>
      <trkpt lat="44.65122" lon="-0.8955">
        <ele>30.3</ele>
        <time>2021-06-01T22:00:00.000Z</time>
      </trkpt>
      <trkpt lat="44.65229" lon="-0.89523">
        <ele>30.6</ele>
        <time>2021-06-01T22:00:31.048Z</time>
      </trkpt>
      <trkpt lat="44.65287" lon="-0.89375">
        <ele>28.1</ele>
        <time>2021-06-01T22:00:50.075Z</time>
      </trkpt>
      <trkpt lat="44.65331" lon="-0.89307">
        <ele>28.3</ele>
        <time>2021-06-01T22:01:08.803Z</time>
      </trkpt>
      <trkpt lat="44.65349" lon="-0.89309">
        <ele>28.8</ele>
        <time>2021-06-01T22:01:15.538Z</time>
      </trkpt>
      <trkpt lat="44.65389" lon="-0.89285">
        <ele>30.6</ele>
      </trkpt>
      <trkpt lat="44.65413" lon="-0.89305">
        <ele>31.2</ele>
        <time>2021-06-01T22:01:22.739Z</time>
      </trkpt>
      <trkpt lat="44.65383" lon="-0.8937">
        <ele>29.7</ele>
      </trkpt>
      <trkpt lat="44.65365" lon="-0.89485">
        <ele>28.8</ele>
        <time>2021-06-01T22:01:50.999Z</time>
      </trkpt>
      <trkpt lat="44.65298" lon="-0.89554">
        <ele>29.3</ele>
        <time>2021-06-01T22:02:06.802Z</time>
      </trkpt>
      <trkpt lat="44.65353" lon="-0.89526">
        <ele>28.5</ele>
        <time>2021-06-01T22:02:20.890Z</time>
      </trkpt>
      <trkpt lat="44.6545" lon="-0.89425">
        <ele>33.5</ele>
        <time>2021-06-01T22:02:38.272Z</time>
      </trkpt>
      <trkpt lat="44.65453" lon="-0.89386">
        <ele>34.2</ele>
        <time>2021-06-01T22:02:54.383Z</time>
      </trkpt>
      <trkpt lat="44.65452" lon="-0.8934">
        <ele>34.7</ele>
        <time>2021-06-01T22:03:09.391Z</time>
      </trkpt>
      <trkpt lat="44.65471" lon="-0.89289">
        <ele>36.4</ele>
        <time>2021-06-01T22:03:33.980Z</time>
      </trkpt>
      <trkpt lat="44.65484" lon="-0.89232">
        <ele>36.2</ele>
        <time>2021-06-01T22:03:54.718Z</time>
      </trkpt>
      <trkpt lat="44.65485" lon="-0.89214">
        <ele>35.6</ele>
        <time>2021-06-01T22:03:56.280Z</time>
      </trkpt>
      <trkpt lat="44.65536" lon="-0.89114">
        <ele>33.5</ele>
        <time>2021-06-01T22:03:59.182Z</time>
      </trkpt>
      <trkpt lat="44.6554" lon="-0.89039">
        <ele>33.5</ele>
        <time>2021-06-01T22:04:37.313Z</time>
      </trkpt>
      <trkpt lat="44.65597" lon="-0.88937">
        <ele>33.5</ele>
        <time>2021-06-01T22:05:08.802Z</time>
      </trkpt>
      <trkpt lat="44.657" lon="-0.88856">
        <ele>34.1</ele>
        <time>2021-06-01T22:05:32.545Z</time>
      </trkpt>
      <trkpt lat="44.65755" lon="-0.88758">
        <ele>32.4</ele>
        <time>2021-06-01T22:05:49.854Z</time>
      </trkpt>
      <trkpt lat="44.65775" lon="-0.88749">
        <ele>32.6</ele>
        <time>2021-06-01T22:05:58.350Z</time>
      </trkpt>
      <trkpt lat="44.65878" lon="-0.88734">
        <ele>35</ele>
      </trkpt>
      <trkpt lat="44.66046" lon="-0.88663">
        <ele>37.2</ele>
        <time>2021-06-01T22:07:29.516Z</time>
      </trkpt>
      <trkpt lat="44.66184" lon="-0.8862">
        <ele>35.6</ele>
        <time>2021-06-01T22:08:26.793Z</time>
      </trkpt>
      <trkpt lat="44.66206" lon="-0.8863">
        <ele>36.4</ele>
        <time>2021-06-01T22:08:35.681Z</time>
      </trkpt>
      <trkpt lat="44.66343" lon="-0.88762">
        <ele>39</ele>
      </trkpt>
      <trkpt lat="44.66363" lon="-0.88785">
        <ele>39</ele>
        <time>2021-06-01T22:09:27.793Z</time>
      </trkpt>
      <trkpt lat="44.66391" lon="-0.88796">
        <ele>38.3</ele>
      </trkpt>
      <trkpt lat="44.66461" lon="-0.88764">
        <ele>36.5</ele>
      </trkpt>
      <trkpt lat="44.66476" lon="-0.88739">
        <ele>36.2</ele>
      </trkpt>
      <trkpt lat="44.6654" lon="-0.88739">
        <ele>37.3</ele>
      </trkpt>
      <trkpt lat="44.66566" lon="-0.8873">
        <ele>37.5</ele>
      </trkpt>
      <trkpt lat="44.66602" lon="-0.88728">
        <ele>38</ele>
      </trkpt>
      <trkpt lat="44.66689" lon="-0.88659">
        <ele>39.3</ele>
      </trkpt>
      <trkpt lat="44.66696" lon="-0.88633">
        <ele>39.5</ele>
        <time>2021-06-01T22:09:49.401Z</time>
      </trkpt>
      <trkpt lat="44.66689" lon="-0.88602">
        <ele>38.9</ele>
      </trkpt>
      <trkpt lat="44.66663" lon="-0.8856">
        <ele>38.7</ele>
        <time>2021-06-01T22:10:53.639Z</time>
      </trkpt>
      <trkpt lat="44.66663" lon="-0.8854">
        <ele>39.4</ele>
      </trkpt>
      <trkpt lat="44.66687" lon="-0.88526">
        <ele>40.5</ele>
      </trkpt>
      <trkpt lat="44.66751" lon="-0.8851">
        <ele>41.9</ele>
      </trkpt>
      <trkpt lat="44.66769" lon="-0.88473">
        <ele>43.2</ele>
      </trkpt>
      <trkpt lat="44.66859" lon="-0.88419">
        <ele>45</ele>
      </trkpt>
      <trkpt lat="44.66907" lon="-0.88407">
        <ele>43.3</ele>
        <time>2021-06-01T22:12:21.938Z</time>
      </trkpt>
      <trkpt lat="44.66972" lon="-0.88334">
        <ele>40</ele>
        <time>2021-06-01T22:12:32.738Z</time>
      </trkpt>
      <trkpt lat="44.67028" lon="-0.88184">
        <ele>39.1</ele>
        <time>2021-06-01T22:12:55.303Z</time>
      </trkpt>
      <trkpt lat="44.67" lon="-0.8806">
        <ele>40.1</ele>
        <time>2021-06-01T22:13:23.890Z</time>
      </trkpt>
      <trkpt lat="44.67047" lon="-0.88067">
        <ele>38.2</ele>
        <time>2021-06-01T22:13:29.995Z</time>
      </trkpt>
      <trkpt lat="44.67054" lon="-0.8811">
        <ele>38.1</ele>
        <time>2021-06-01T22:13:38.321Z</time>
      </trkpt>
      <trkpt lat="44.67069" lon="-0.88113">
        <ele>37.9</ele>
        <time>2021-06-01T22:13:40.951Z</time>
      </trkpt>
      <trkpt lat="44.67106" lon="-0.87895">
        <ele>39</ele>
        <time>2021-06-01T22:14:28.316Z</time>
      </trkpt>
      <trkpt lat="44.67148" lon="-0.87852">
        <ele>39.6</ele>
        <time>2021-06-01T22:14:44.490Z</time>
      </trkpt>
      <trkpt lat="44.67086" lon="-0.87806">
        <ele>41.9</ele>
        <time>2021-06-01T22:15:12.389Z</time>
      </trkpt>
      <trkpt lat="44.67125" lon="-0.87735">
        <ele>43.1</ele>
        <time>2021-06-01T22:15:33.847Z</time>
      </trkpt>
      <trkpt lat="44.67214" lon="-0.87708">
        <ele>42</ele>
        <time>2021-06-01T22:15:49.882Z</time>
      </trkpt>
      <trkpt lat="44.67311" lon="-0.87686">
        <ele>42.7</ele>
        <time>2021-06-01T22:16:19.144Z</time>
      </trkpt>
      <trkpt lat="44.67392" lon="-0.87622">
        <ele>43.3</ele>
        <time>2021-06-01T22:16:46.635Z</time>
      </trkpt>
      <trkpt lat="44.6744" lon="-0.87589">
        <ele>42.8</ele>
        <time>2021-06-01T22:16:56.388Z</time>
      </trkpt>
      <trkpt lat="44.67495" lon="-0.87529">
        <ele>43.4</ele>
        <time>2021-06-01T22:17:17.427Z</time>
      </trkpt>
      <trkpt lat="44.67535" lon="-0.87508">
        <ele>43.8</ele>
        <time>2021-06-01T22:17:30.429Z</time>
      </trkpt>
      <trkpt lat="44.67555" lon="-0.87479">
        <ele>44.3</ele>
        <time>2021-06-01T22:17:39.943Z</time>
      </trkpt>
      <trkpt lat="44.67598" lon="-0.87428">
        <ele>43.9</ele>
        <time>2021-06-01T22:17:54.064Z</time>
      </trkpt>
      <trkpt lat="44.67638" lon="-0.87354">
        <ele>43.9</ele>
        <time>2021-06-01T22:18:12.464Z</time>
      </trkpt>
      <trkpt lat="44.67648" lon="-0.87278">
        <ele>45.2</ele>
        <time>2021-06-01T22:18:31.996Z</time>
      </trkpt>
      <trkpt lat="44.67886" lon="-0.87189">
        <ele>48.5</ele>
        <time>2021-06-01T22:19:50.145Z</time>
      </trkpt>
      <trkpt lat="44.67924" lon="-0.87072">
        <ele>51.8</ele>
        <time>2021-06-01T22:20:28.175Z</time>
      </trkpt>
      <trkpt lat="44.67955" lon="-0.87043">
        <ele>51.1</ele>
        <time>2021-06-01T22:20:34.208Z</time>
      </trkpt>
      <trkpt lat="44.67998" lon="-0.86898">
        <ele>47</ele>
        <time>2021-06-01T22:20:49.133Z</time>
      </trkpt>
      <trkpt lat="44.68152" lon="-0.86723">
        <ele>51.3</ele>
        <time>2021-06-01T22:21:57.936Z</time>
      </trkpt>
      <trkpt lat="44.68271" lon="-0.86705">
        <ele>48.9</ele>
        <time>2021-06-01T22:22:17.047Z</time>
      </trkpt>
      <trkpt lat="44.68303" lon="-0.86603">
        <ele>48.5</ele>
        <time>2021-06-01T22:22:37.530Z</time>
      </trkpt>
      <trkpt lat="44.68255" lon="-0.86488">
        <ele>52.1</ele>
        <time>2021-06-01T22:23:18.000Z</time>
      </trkpt>
      <trkpt lat="44.68178" lon="-0.86513">
        <ele>52.7</ele>
        <time>2021-06-01T22:23:41.643Z</time>
      </trkpt>
      <trkpt lat="44.68105" lon="-0.86731">
        <ele>50.3</ele>
        <time>2021-06-01T22:24:11.086Z</time>
      </trkpt>
      <trkpt lat="44.67921" lon="-0.86953">
        <ele>48.7</ele>
        <time>2021-06-01T22:25:12.377Z</time>
      </trkpt>
      <trkpt lat="44.67848" lon="-0.87146">
        <ele>49.8</ele>
        <time>2021-06-01T22:25:58.649Z</time>
      </trkpt>
      <trkpt lat="44.67603" lon="-0.87244">
        <ele>46</ele>
        <time>2021-06-01T22:26:41.924Z</time>
      </trkpt>
      <trkpt lat="44.67592" lon="-0.87291">
        <ele>45.8</ele>
        <time>2021-06-01T22:26:50.934Z</time>
      </trkpt>
      <trkpt lat="44.6762" lon="-0.87343">
        <ele>44.5</ele>
        <time>2021-06-01T22:26:57.707Z</time>
      </trkpt>
      <trkpt lat="44.67492" lon="-0.87487">
        <ele>44.5</ele>
        <time>2021-06-01T22:27:43.339Z</time>
      </trkpt>
      <trkpt lat="44.67467" lon="-0.87446">
        <ele>45.6</ele>
        <time>2021-06-01T22:27:57.833Z</time>
      </trkpt>
      <trkpt lat="44.67468" lon="-0.8738">
        <ele>46.2</ele>
        <time>2021-06-01T22:28:12.634Z</time>
      </trkpt>
      <trkpt lat="44.67436" lon="-0.87278">
        <ele>43.7</ele>
        <time>2021-06-01T22:28:23.791Z</time>
      </trkpt>
      <trkpt lat="44.67511" lon="-0.87114">
        <ele>43.7</ele>
        <time>2021-06-01T22:29:02.391Z</time>
      </trkpt>
      <trkpt lat="44.67584" lon="-0.87039">
        <ele>45.1</ele>
        <time>2021-06-01T22:29:31.718Z</time>
      </trkpt>
      <trkpt lat="44.67704" lon="-0.86717">
        <ele>49</ele>
        <time>2021-06-01T22:30:55.222Z</time>
      </trkpt>
      <trkpt lat="44.67852" lon="-0.86568">
        <ele>50.3</ele>
        <time>2021-06-01T22:31:49.439Z</time>
      </trkpt>
      <trkpt lat="44.67855" lon="-0.86442">
        <ele>51</ele>
        <time>2021-06-01T22:32:16.316Z</time>
      </trkpt>
      <trkpt lat="44.67923" lon="-0.8634">
        <ele>53.1</ele>
        <time>2021-06-01T22:32:50.632Z</time>
      </trkpt>
      <trkpt lat="44.67966" lon="-0.86159">
        <ele>52.9</ele>
        <time>2021-06-01T22:33:27.573Z</time>
      </trkpt>
      <trkpt lat="44.6794" lon="-0.86132">
        <ele>54.9</ele>
        <time>2021-06-01T22:33:44.633Z</time>
      </trkpt>
      <trkpt lat="44.67987" lon="-0.86006">
        <ele>54.2</ele>
        <time>2021-06-01T22:34:10.098Z</time>
      </trkpt>
      <trkpt lat="44.68141" lon="-0.85788">
        <ele>53.4</ele>
        <time>2021-06-01T22:35:07.694Z</time>
      </trkpt>
      <trkpt lat="44.68095" lon="-0.8571">
        <ele>52</ele>
        <time>2021-06-01T22:35:19.284Z</time>
      </trkpt>
      <trkpt lat="44.68141" lon="-0.85441">
        <ele>52.8</ele>
        <time>2021-06-01T22:36:16.166Z</time>
      </trkpt>
      <trkpt lat="44.67973" lon="-0.85524">
        <ele>55.6</ele>
        <time>2021-06-01T22:37:14.077Z</time>
      </trkpt>
      <trkpt lat="44.67959" lon="-0.85639">
        <ele>53</ele>
        <time>2021-06-01T22:37:25.776Z</time>
      </trkpt>
      <trkpt lat="44.67885" lon="-0.8589">
        <ele>55.2</ele>
        <time>2021-06-01T22:38:25.824Z</time>
      </trkpt>
      <trkpt lat="44.67854" lon="-0.86075">
        <ele>53.3</ele>
        <time>2021-06-01T22:38:49.035Z</time>
      </trkpt>
      <trkpt lat="44.67822" lon="-0.8605">
        <ele>52</ele>
        <time>2021-06-01T22:38:53.983Z</time>
      </trkpt>
      <trkpt lat="44.67812" lon="-0.86112">
        <ele>51.7</ele>
        <time>2021-06-01T22:39:05.406Z</time>
      </trkpt>
      <trkpt lat="44.67702" lon="-0.86204">
        <ele>51.6</ele>
        <time>2021-06-01T22:39:40.612Z</time>
      </trkpt>
      <trkpt lat="44.67808" lon="-0.86488">
        <ele>50.7</ele>
        <time>2021-06-01T22:40:40.484Z</time>
      </trkpt>
      <trkpt lat="44.67802" lon="-0.86563">
        <ele>50.2</ele>
        <time>2021-06-01T22:40:50.287Z</time>
      </trkpt>
      <trkpt lat="44.67737" lon="-0.86639">
        <ele>49</ele>
        <time>2021-06-01T22:41:04.779Z</time>
      </trkpt>
      <trkpt lat="44.6764" lon="-0.86791">
        <ele>49.2</ele>
        <time>2021-06-01T22:41:45.724Z</time>
      </trkpt>
      <trkpt lat="44.6756" lon="-0.87015">
        <ele>46.1</ele>
        <time>2021-06-01T22:42:15.101Z</time>
      </trkpt>
      <trkpt lat="44.67478" lon="-0.87099">
        <ele>44.3</ele>
        <time>2021-06-01T22:42:31.751Z</time>
      </trkpt>
      <trkpt lat="44.67456" lon="-0.87066">
        <ele>45.7</ele>
        <time>2021-06-01T22:42:46.642Z</time>
      </trkpt>
      <trkpt lat="44.67478" lon="-0.87029">
        <ele>46.8</ele>
        <time>2021-06-01T22:43:00.161Z</time>
      </trkpt>
      <trkpt lat="44.67464" lon="-0.86954">
        <ele>48.9</ele>
        <time>2021-06-01T22:43:23.735Z</time>
      </trkpt>
      <trkpt lat="44.67439" lon="-0.86923">
        <ele>49.2</ele>
        <time>2021-06-01T22:43:33.847Z</time>
      </trkpt>
      <trkpt lat="44.67398" lon="-0.86974">
        <ele>48.8</ele>
        <time>2021-06-01T22:43:44.122Z</time>
      </trkpt>
      <trkpt lat="44.67369" lon="-0.86914">
        <ele>49</ele>
        <time>2021-06-01T22:43:59.013Z</time>
      </trkpt>
      <trkpt lat="44.67373" lon="-0.86778">
        <ele>49.8</ele>
        <time>2021-06-01T22:44:28.166Z</time>
      </trkpt>
      <trkpt lat="44.67358" lon="-0.86724">
        <ele>49.5</ele>
        <time>2021-06-01T22:44:35.908Z</time>
      </trkpt>
      <trkpt lat="44.67347" lon="-0.86735">
        <ele>49.2</ele>
        <time>2021-06-01T22:44:38.009Z</time>
      </trkpt>
      <trkpt lat="44.67356" lon="-0.8679">
        <ele>49.4</ele>
        <time>2021-06-01T22:44:49.716Z</time>
      </trkpt>
      <trkpt lat="44.67333" lon="-0.86936">
        <ele>49.5</ele>
        <time>2021-06-01T22:45:19.577Z</time>
      </trkpt>
      <trkpt lat="44.6736" lon="-0.87015">
        <ele>49.8</ele>
        <time>2021-06-01T22:45:37.729Z</time>
      </trkpt>
      <trkpt lat="44.67396" lon="-0.87028">
        <ele>48.2</ele>
        <time>2021-06-01T22:45:42.404Z</time>
      </trkpt>
      <trkpt lat="44.67417" lon="-0.87031">
        <ele>47.3</ele>
        <time>2021-06-01T22:45:45.069Z</time>
      </trkpt>
      <trkpt lat="44.6745" lon="-0.87116">
        <ele>44.8</ele>
        <time>2021-06-01T22:45:54.305Z</time>
      </trkpt>
      <trkpt lat="44.67413" lon="-0.87234">
        <ele>43.6</ele>
        <time>2021-06-01T22:46:10.250Z</time>
      </trkpt>
      <trkpt lat="44.67412" lon="-0.87358">
        <ele>43.8</ele>
        <time>2021-06-01T22:46:35.320Z</time>
      </trkpt>
      <trkpt lat="44.67464" lon="-0.87499">
        <ele>44.5</ele>
        <time>2021-06-01T22:47:08.655Z</time>
      </trkpt>
      <trkpt lat="44.67342" lon="-0.87604">
        <ele>43</ele>
        <time>2021-06-01T22:47:34.378Z</time>
      </trkpt>
      <trkpt lat="44.67321" lon="-0.87581">
        <ele>43.2</ele>
        <time>2021-06-01T22:47:42.336Z</time>
      </trkpt>
      <trkpt lat="44.6708" lon="-0.87161">
        <ele>45.9</ele>
        <time>2021-06-01T22:49:36.533Z</time>
      </trkpt>
      <trkpt lat="44.67024" lon="-0.87039">
        <ele>45.2</ele>
        <time>2021-06-01T22:50:02.576Z</time>
      </trkpt>
      <trkpt lat="44.66943" lon="-0.87166">
        <ele>48.1</ele>
        <time>2021-06-01T22:50:45.817Z</time>
      </trkpt>
      <trkpt lat="44.66968" lon="-0.87305">
        <ele>49.3</ele>
        <time>2021-06-01T22:51:17.631Z</time>
      </trkpt>
      <trkpt lat="44.6704" lon="-0.87437">
        <ele>49.2</ele>
        <time>2021-06-01T22:51:50.145Z</time>
      </trkpt>
      <trkpt lat="44.66953" lon="-0.87896">
        <ele>48.3</ele>
        <time>2021-06-01T22:53:20.500Z</time>
      </trkpt>
      <trkpt lat="44.66958" lon="-0.88054">
        <ele>43.9</ele>
        <time>2021-06-01T22:53:35.179Z</time>
      </trkpt>
      <trkpt lat="44.66979" lon="-0.88124">
        <ele>40.8</ele>
        <time>2021-06-01T22:53:41.180Z</time>
      </trkpt>
      <trkpt lat="44.66976" lon="-0.88181">
        <ele>40.7</ele>
        <time>2021-06-01T22:53:52.085Z</time>
      </trkpt>
      <trkpt lat="44.6694" lon="-0.88254">
        <ele>42.5</ele>
        <time>2021-06-01T22:54:15.883Z</time>
      </trkpt>
      <trkpt lat="44.66933" lon="-0.88343">
        <ele>41.6</ele>
        <time>2021-06-01T22:54:26.809Z</time>
      </trkpt>
      <trkpt lat="44.66912" lon="-0.88368">
        <ele>42.7</ele>
      </trkpt>
      <trkpt lat="44.66884" lon="-0.88384">
        <ele>44.1</ele>
      </trkpt>
      <trkpt lat="44.66815" lon="-0.88412">
        <ele>45.9</ele>
      </trkpt>
      <trkpt lat="44.66756" lon="-0.88457">
        <ele>43.6</ele>
      </trkpt>
      <trkpt lat="44.66708" lon="-0.88502">
        <ele>41.5</ele>
        <time>2021-06-01T22:55:36.889Z</time>
      </trkpt>
      <trkpt lat="44.66669" lon="-0.88493">
        <ele>41.1</ele>
        <time>2021-06-01T22:55:43.419Z</time>
      </trkpt>
      <trkpt lat="44.66654" lon="-0.88496">
        <ele>40.3</ele>
      </trkpt>
      <trkpt lat="44.66633" lon="-0.8852">
        <ele>38.6</ele>
      </trkpt>
      <trkpt lat="44.66604" lon="-0.88579">
        <ele>36.5</ele>
        <time>2021-06-01T22:55:53.829Z</time>
      </trkpt>
      <trkpt lat="44.66515" lon="-0.88634">
        <ele>35.3</ele>
      </trkpt>
      <trkpt lat="44.66452" lon="-0.88632">
        <ele>35</ele>
      </trkpt>
      <trkpt lat="44.664" lon="-0.88677">
        <ele>35.1</ele>
        <time>2021-06-01T22:56:48.411Z</time>
      </trkpt>
      <trkpt lat="44.66356" lon="-0.88627">
        <ele>35.3</ele>
      </trkpt>
      <trkpt lat="44.66303" lon="-0.88551">
        <ele>36.1</ele>
      </trkpt>
      <trkpt lat="44.66265" lon="-0.88494">
        <ele>37.1</ele>
      </trkpt>
      <trkpt lat="44.66267" lon="-0.88463">
        <ele>38.8</ele>
        <time>2021-06-01T22:57:56.015Z</time>
      </trkpt>
      <trkpt lat="44.66195" lon="-0.88441">
        <ele>38.5</ele>
      </trkpt>
      <trkpt lat="44.66129" lon="-0.88452">
        <ele>37.4</ele>
        <time>2021-06-01T22:58:20.990Z</time>
      </trkpt>
      <trkpt lat="44.66124" lon="-0.88426">
        <ele>38.2</ele>
        <time>2021-06-01T22:58:29.627Z</time>
      </trkpt>
      <trkpt lat="44.66088" lon="-0.88402">
        <ele>39.8</ele>
        <time>2021-06-01T22:58:47.172Z</time>
      </trkpt>
      <trkpt lat="44.65984" lon="-0.88427">
        <ele>40.2</ele>
        <time>2021-06-01T22:59:15.618Z</time>
      </trkpt>
      <trkpt lat="44.65966" lon="-0.88544">
        <ele>37.9</ele>
        <time>2021-06-01T22:59:28.895Z</time>
      </trkpt>
      <trkpt lat="44.65937" lon="-0.8854">
        <ele>38</ele>
      </trkpt>
      <trkpt lat="44.65912" lon="-0.88565">
        <ele>37.2</ele>
      </trkpt>
      <trkpt lat="44.65865" lon="-0.886">
        <ele>34.9</ele>
      </trkpt>
      <trkpt lat="44.65777" lon="-0.88594">
        <ele>34.5</ele>
      </trkpt>
      <trkpt lat="44.65707" lon="-0.88621">
        <ele>36.3</ele>
        <time>2021-06-01T23:00:36.344Z</time>
      </trkpt>
      <trkpt lat="44.65682" lon="-0.88565">
        <ele>37.7</ele>
        <time>2021-06-01T23:00:54.345Z</time>
      </trkpt>
      <trkpt lat="44.6567" lon="-0.88581">
        <ele>37.9</ele>
        <time>2021-06-01T23:00:59.522Z</time>
      </trkpt>
      <trkpt lat="44.65673" lon="-0.88667">
        <ele>37.7</ele>
        <time>2021-06-01T23:01:15.760Z</time>
      </trkpt>
      <trkpt lat="44.65611" lon="-0.88776">
        <ele>36.9</ele>
      </trkpt>
      <trkpt lat="44.65523" lon="-0.8885">
        <ele>40.2</ele>
        <time>2021-06-01T23:02:18.255Z</time>
      </trkpt>
      <trkpt lat="44.65473" lon="-0.88966">
        <ele>37.5</ele>
        <time>2021-06-01T23:02:32.350Z</time>
      </trkpt>
      <trkpt lat="44.65445" lon="-0.89078">
        <ele>36.5</ele>
        <time>2021-06-01T23:02:47.270Z</time>
      </trkpt>
      <trkpt lat="44.65355" lon="-0.89184">
        <ele>33.7</ele>
        <time>2021-06-01T23:03:05.220Z</time>
      </trkpt>
      <trkpt lat="44.65315" lon="-0.89254">
        <ele>29</ele>
        <time>2021-06-01T23:03:12.419Z</time>
      </trkpt>
      <trkpt lat="44.65262" lon="-0.89195">
        <ele>31.3</ele>
        <time>2021-06-01T23:03:39.759Z</time>
      </trkpt>
      <trkpt lat="44.65228" lon="-0.89223">
        <ele>30.4</ele>
        <time>2021-06-01T23:03:45.852Z</time>
      </trkpt>
      <trkpt lat="44.65218" lon="-0.89322">
        <ele>29.8</ele>
        <time>2021-06-01T23:03:59.000Z</time>
      </trkpt>
      <trkpt lat="44.65241" lon="-0.89401">
        <ele>29.2</ele>
        <time>2021-06-01T23:04:10.008Z</time>
      </trkpt>
      <trkpt lat="44.65214" lon="-0.89458">
        <ele>30.4</ele>
        <time>2021-06-01T23:04:27.521Z</time>
      </trkpt>
      <trkpt lat="44.65178" lon="-0.89375">
        <ele>30.7</ele>
        <time>2021-06-01T23:04:47.569Z</time>
      </trkpt>
      <trkpt lat="44.65202" lon="-0.89101">
        <ele>35.9</ele>
        <time>2021-06-01T23:05:59.747Z</time>
      </trkpt>
      <trkpt lat="44.65356" lon="-0.88855">
        <ele>39.9</ele>
        <time>2021-06-01T23:07:16.742Z</time>
      </trkpt>
      <trkpt lat="44.65419" lon="-0.88594">
        <ele>41.4</ele>
        <time>2021-06-01T23:08:15.436Z</time>
      </trkpt>
      <trkpt lat="44.65374" lon="-0.88485">
        <ele>36</ele>
        <time>2021-06-01T23:08:25.167Z</time>
      </trkpt>
      <trkpt lat="44.65441" lon="-0.88391">
        <ele>37.5</ele>
        <time>2021-06-01T23:08:55.993Z</time>
      </trkpt>
      <trkpt lat="44.6544" lon="-0.88284">
        <ele>40.1</ele>
        <time>2021-06-01T23:09:26.832Z</time>
      </trkpt>
      <trkpt lat="44.65503" lon="-0.88219">
        <ele>42.3</ele>
        <time>2021-06-01T23:09:56.146Z</time>
      </trkpt>
      <trkpt lat="44.65502" lon="-0.88079">
        <ele>39</ele>
        <time>2021-06-01T23:10:09.934Z</time>
      </trkpt>
      <trkpt lat="44.65698" lon="-0.87959">
        <ele>39</ele>
        <time>2021-06-01T23:11:09.447Z</time>
      </trkpt>
      <trkpt lat="44.65739" lon="-0.87994">
        <ele>38.9</ele>
        <time>2021-06-01T23:11:22.387Z</time>
      </trkpt>
      <trkpt lat="44.65737" lon="-0.87701">
        <ele>46.7</ele>
        <time>2021-06-01T23:12:50.672Z</time>
      </trkpt>
      <trkpt lat="44.65704" lon="-0.87416">
        <ele>41.6</ele>
        <time>2021-06-01T23:13:21.729Z</time>
      </trkpt>
      <trkpt lat="44.65671" lon="-0.87414">
        <ele>42</ele>
        <time>2021-06-01T23:13:32.072Z</time>
      </trkpt>
      <trkpt lat="44.65791" lon="-0.86375">
        <ele>42</ele>
        <time>2021-06-01T23:17:00.508Z</time>
      </trkpt>
      <trkpt lat="44.65761" lon="-0.86407">
        <ele>41.3</ele>
        <time>2021-06-01T23:17:06.626Z</time>
      </trkpt>
      <trkpt lat="44.65604" lon="-0.86405">
        <ele>40.6</ele>
        <time>2021-06-01T23:17:47.539Z</time>
      </trkpt>
      <trkpt lat="44.65468" lon="-0.8653">
        <ele>39.9</ele>
        <time>2021-06-01T23:18:29.972Z</time>
      </trkpt>
      <trkpt lat="44.65401" lon="-0.86535">
        <ele>39.5</ele>
        <time>2021-06-01T23:18:47.087Z</time>
      </trkpt>
      <trkpt lat="44.65377" lon="-0.86552">
        <ele>36.7</ele>
        <time>2021-06-01T23:18:50.116Z</time>
      </trkpt>
      <trkpt lat="44.65379" lon="-0.86577">
        <ele>35.7</ele>
        <time>2021-06-01T23:18:52.128Z</time>
      </trkpt>
      <trkpt lat="44.65414" lon="-0.86585">
        <ele>38.6</ele>
        <time>2021-06-01T23:19:13.929Z</time>
      </trkpt>
      <trkpt lat="44.65441" lon="-0.86561">
        <ele>39.4</ele>
        <time>2021-06-01T23:19:25.469Z</time>
      </trkpt>
      <trkpt lat="44.65493" lon="-0.86563">
        <ele>38.6</ele>
        <time>2021-06-01T23:19:34.256Z</time>
      </trkpt>
      <trkpt lat="44.65552" lon="-0.86591">
        <ele>37.9</ele>
        <time>2021-06-01T23:19:45.344Z</time>
      </trkpt>
      <trkpt lat="44.65588" lon="-0.86677">
        <ele>38.2</ele>
        <time>2021-06-01T23:20:05.900Z</time>
      </trkpt>
      <trkpt lat="44.65584" lon="-0.86757">
        <ele>39.3</ele>
        <time>2021-06-01T23:20:25.188Z</time>
      </trkpt>
      <trkpt lat="44.6553" lon="-0.86791">
        <ele>38.9</ele>
        <time>2021-06-01T23:20:40.113Z</time>
      </trkpt>
      <trkpt lat="44.65483" lon="-0.86756">
        <ele>36.3</ele>
        <time>2021-06-01T23:20:46.461Z</time>
      </trkpt>
      <trkpt lat="44.65444" lon="-0.86764">
        <ele>34.5</ele>
        <time>2021-06-01T23:20:51.301Z</time>
      </trkpt>
      <trkpt lat="44.65435" lon="-0.8682">
        <ele>34.9</ele>
        <time>2021-06-01T23:21:03.790Z</time>
      </trkpt>
      <trkpt lat="44.65398" lon="-0.86939">
        <ele>33.2</ele>
        <time>2021-06-01T23:21:18.833Z</time>
      </trkpt>
      <trkpt lat="44.65448" lon="-0.87035">
        <ele>34.4</ele>
        <time>2021-06-01T23:21:45.911Z</time>
      </trkpt>
      <trkpt lat="44.65447" lon="-0.86971">
        <ele>35.2</ele>
        <time>2021-06-01T23:22:01.019Z</time>
      </trkpt>
      <trkpt lat="44.65462" lon="-0.8697">
        <ele>35.9</ele>
        <time>2021-06-01T23:22:08.170Z</time>
      </trkpt>
      <trkpt lat="44.6557" lon="-0.87238">
        <ele>39.2</ele>
        <time>2021-06-01T23:23:18.927Z</time>
      </trkpt>
      <trkpt lat="44.65564" lon="-0.87276">
        <ele>39.4</ele>
        <time>2021-06-01T23:23:27.181Z</time>
      </trkpt>
      <trkpt lat="44.65533" lon="-0.87279">
        <ele>37.7</ele>
        <time>2021-06-01T23:23:30.710Z</time>
      </trkpt>
      <trkpt lat="44.6552" lon="-0.87472">
        <ele>42</ele>
        <time>2021-06-01T23:24:24.448Z</time>
      </trkpt>
      <trkpt lat="44.65465" lon="-0.87508">
        <ele>41.7</ele>
        <time>2021-06-01T23:24:40.148Z</time>
      </trkpt>
      <trkpt lat="44.65411" lon="-0.87504">
        <ele>40.9</ele>
        <time>2021-06-01T23:24:49.349Z</time>
      </trkpt>
      <trkpt lat="44.6524" lon="-0.87576">
        <ele>39.7</ele>
        <time>2021-06-01T23:25:34.402Z</time>
      </trkpt>
      <trkpt lat="44.65197" lon="-0.87554">
        <ele>36.8</ele>
        <time>2021-06-01T23:25:39.247Z</time>
      </trkpt>
      <trkpt lat="44.65219" lon="-0.87509">
        <ele>38.4</ele>
        <time>2021-06-01T23:25:56.613Z</time>
      </trkpt>
      <trkpt lat="44.65222" lon="-0.87413">
        <ele>34.1</ele>
        <time>2021-06-01T23:26:03.878Z</time>
      </trkpt>
      <trkpt lat="44.65192" lon="-0.87401">
        <ele>35.3</ele>
        <time>2021-06-01T23:26:17.286Z</time>
      </trkpt>
      <trkpt lat="44.65076" lon="-0.87471">
        <ele>29.9</ele>
        <time>2021-06-01T23:26:33.203Z</time>
      </trkpt>
      <trkpt lat="44.6508" lon="-0.87532">
        <ele>29</ele>
        <time>2021-06-01T23:26:40.113Z</time>
      </trkpt>
      <trkpt lat="44.65182" lon="-0.87579">
        <ele>34</ele>
        <time>2021-06-01T23:27:31.218Z</time>
      </trkpt>
      <trkpt lat="44.65266" lon="-0.87694">
        <ele>39</ele>
        <time>2021-06-01T23:28:24.781Z</time>
      </trkpt>
      <trkpt lat="44.65298" lon="-0.8794">
        <ele>44.4</ele>
        <time>2021-06-01T23:29:33.378Z</time>
      </trkpt>
      <trkpt lat="44.65252" lon="-0.88512">
        <ele>34.9</ele>
        <time>2021-06-01T23:30:36.438Z</time>
      </trkpt>
      <trkpt lat="44.64921" lon="-0.88992">
        <ele>34</ele>
        <time>2021-06-01T23:32:45.097Z</time>
      </trkpt>
      <trkpt lat="44.64884" lon="-0.89005">
        <ele>31.2</ele>
        <time>2021-06-01T23:32:49.395Z</time>
      </trkpt>
      <trkpt lat="44.64909" lon="-0.88892">
        <ele>32.6</ele>
        <time>2021-06-01T23:33:17.043Z</time>
      </trkpt>
      <trkpt lat="44.6492" lon="-0.88797">
        <ele>29.7</ele>
        <time>2021-06-01T23:33:25.711Z</time>
      </trkpt>
      <trkpt lat="44.65061" lon="-0.88577">
        <ele>31.8</ele>
        <time>2021-06-01T23:34:30.248Z</time>
      </trkpt>
      <trkpt lat="44.65078" lon="-0.88476">
        <ele>31.2</ele>
        <time>2021-06-01T23:34:43.953Z</time>
      </trkpt>
      <trkpt lat="44.65127" lon="-0.88397">
        <ele>32.3</ele>
        <time>2021-06-01T23:35:07.953Z</time>
      </trkpt>
      <trkpt lat="44.65204" lon="-0.88337">
        <ele>34.3</ele>
        <time>2021-06-01T23:35:38.901Z</time>
      </trkpt>
      <trkpt lat="44.65208" lon="-0.88236">
        <ele>35.3</ele>
        <time>2021-06-01T23:36:01.856Z</time>
      </trkpt>
      <trkpt lat="44.6515" lon="-0.88145">
        <ele>38</ele>
        <time>2021-06-01T23:36:35.675Z</time>
      </trkpt>
      <trkpt lat="44.65144" lon="-0.88033">
        <ele>38.3</ele>
        <time>2021-06-01T23:36:58.710Z</time>
      </trkpt>
      <trkpt lat="44.65202" lon="-0.87954">
        <ele>42.5</ele>
        <time>2021-06-01T23:37:38.546Z</time>
      </trkpt>
      <trkpt lat="44.65287" lon="-0.87928">
        <ele>44.6</ele>
        <time>2021-06-01T23:38:09.637Z</time>
      </trkpt>
      <trkpt lat="44.65291" lon="-0.88254">
        <ele>36</ele>
        <time>2021-06-01T23:38:40.511Z</time>
      </trkpt>
      <trkpt lat="44.65193" lon="-0.89099">
        <ele>36.2</ele>
        <time>2021-06-01T23:41:30.572Z</time>
      </trkpt>
      <trkpt lat="44.64951" lon="-0.8941">
        <ele>30.6</ele>
        <time>2021-06-01T23:42:24.818Z</time>
      </trkpt>
      <trkpt lat="44.64942" lon="-0.89508">
        <ele>28.9</ele>
        <time>2021-06-01T23:42:35.524Z</time>
      </trkpt>
      <trkpt lat="44.65011" lon="-0.8956">
        <ele>27.7</ele>
        <time>2021-06-01T23:42:48.758Z</time>
      </trkpt>
      <trkpt lat="44.65083" lon="-0.89524">
        <ele>31.2</ele>
        <time>2021-06-01T23:43:24.960Z</time>
      </trkpt>
      <trkpt lat="44.6512" lon="-0.89551">
        <ele>30.2</ele>
        <time>2021-06-01T23:43:31.323Z</time>
      </trkpt>
    </trkseg>
  </trk>
</gpx>